METAR Data
IDs: Format: Raw Decoded Include TAF

Data at: 0430 UTC 26 Sep 2018

KDPL 260405Z AUTO 00000KT 1 1/2SM BR OVC003 22/22 A3011 RMK AO2 VIS 1V3
KDPL 260345Z AUTO 00000KT 7SM OVC003 22/22 A3011 RMK AO2
KDPL 260325Z AUTO 01003KT 10SM BKN005 22/22 A3011 RMK AO2
KDPL 260305Z AUTO 01003KT 7SM SCT007 22/22 A3012 RMK AO2
KDPL 260245Z AUTO 33003KT 10SM CLR 23/22 A3012 RMK AO2
KDPL 260225Z AUTO 31003KT 10SM CLR 22/22 A3012 RMK AO2
KDPL 260205Z AUTO 00000KT 10SM CLR 23/22 A3011 RMK AO2
KDPL 260145Z AUTO 00000KT 10SM CLR 23/22 A3011 RMK AO2
KDPL 260125Z AUTO 00000KT 10SM CLR 23/22 A3011 RMK AO2
KDPL 260105Z AUTO 00000KT 10SM CLR 23/23 A3011 RMK AO2
KDPL 260045Z AUTO 00000KT 10SM CLR 24/23 A3011 RMK AO2
KDPL 260025Z AUTO 03004KT 10SM CLR 24/23 A3011 RMK AO2
KDPL 260005Z AUTO 04003KT 10SM CLR 24/23 A3010 RMK AO2
KDPL 252345Z AUTO 00000KT 10SM BKN095 25/24 A3010 RMK AO2
KDPL 252325Z AUTO 03003KT 10SM SCT095 24/23 A3011 RMK AO2
KDPL 252305Z AUTO 00000KT 10SM CLR 25/23 A3010 RMK AO2
KDPL 252245Z AUTO 00000KT 10SM CLR 26/23 A3011 RMK AO2
KDPL 252225Z AUTO 00000KT 10SM SCT080 SCT090 26/23 A3010 RMK AO2
KDPL 252205Z AUTO 00000KT 10SM SCT065 SCT080 26/23 A3011 RMK AO2
KDPL 252145Z AUTO 00000KT 10SM SCT065 BKN085 OVC090 27/23 A3011 RMK AO2
KDPL 252125Z AUTO 00000KT 10SM SCT025 OVC075 27/23 A3011 RMK AO2
KDPL 252105Z AUTO 10003KT 10SM SCT025 BKN085 28/23 A3011 RMK AO2
KDPL 252045Z AUTO 00000KT 10SM SCT026 SCT070 SCT085 28/24 A3011 RMK AO2
KDPL 252025Z AUTO 00000KT 10SM SCT048 SCT070 SCT110 27/24 A3011 RMK AO2
KDPL 252005Z AUTO 05003KT 10SM SCT023 SCT037 BKN050 28/24 A3011 RMK AO2
KDPL 251945Z AUTO 34009KT 10SM SCT025 BKN032 BKN041 28/24 A3011 RMK AO2
KDPL 251925Z AUTO 03003KT 10SM BKN025 BKN032 OVC110 28/24 A3011 RMK AO2
KDPL 251905Z AUTO 02004KT 10SM BKN027 BKN039 BKN055 30/24 A3011 RMK AO2
KDPL 251845Z AUTO 01004KT 10SM SCT027 SCT060 SCT100 29/24 A3012 RMK AO2 P0003
KDPL 251825Z AUTO 00000KT 10SM SCT046 SCT060 BKN100 28/25 A3013 RMK AO2 P0003
KDPL 251805Z AUTO 00000KT 3SM RA BR SCT029 BKN046 BKN050 26/24 A3014 RMK AO2 P0003
KDPL 251745Z AUTO 11004KT 10SM SCT027 SCT032 BKN075 29/23 A3014 RMK AO2
KDPL 251725Z AUTO 06004KT 10SM BKN027 BKN036 OVC075 29/23 A3016 RMK AO2
KDPL 251645Z AUTO 06003KT 10SM BKN027 BKN032 29/23 A3017 RMK AO2
KDPL 251625Z AUTO 00000KT 10SM SCT025 BKN033 BKN048 28/23 A3017 RMK AO2
KDPL 251605Z AUTO 09006KT 10SM SCT021 SCT026 BKN060 29/23 A3017 RMK AO2
KDPL 251545Z AUTO 11005KT 10SM BKN021 BKN037 OVC060 28/24 A3018 RMK AO2
KDPL 251525Z AUTO 09004KT 10SM BKN019 BKN024 BKN060 28/24 A3019 RMK AO2
KDPL 251505Z AUTO 06003KT 10SM BKN019 28/23 A3019 RMK AO2
KDPL 251445Z AUTO 06003KT 10SM BKN015 27/23 A3019 RMK AO2
KDPL 251425Z AUTO 04004KT 10SM SCT011 BKN080 26/23 A3020 RMK AO2
KDPL 251405Z AUTO 02004KT 7SM BKN007 OVC080 25/24 A3021 RMK AO2
KDPL 251345Z AUTO 00000KT 7SM BKN007 OVC080 24/23 A3021 RMK AO2
KDPL 251325Z AUTO 00000KT 7SM BKN007 OVC080 24/23 A3021 RMK AO2
KDPL 251305Z AUTO 05003KT 5SM BR OVC004 23/23 A3021 RMK AO2
KDPL 251245Z AUTO 02003KT 4SM BR OVC002 23/22 A3021 RMK AO2
KDPL 251225Z AUTO 02004KT 3SM BR OVC002 22/22 A3021 RMK AO2
KDPL 251205Z AUTO 03003KT 2 1/2SM BR OVC002 22/22 A3020 RMK AO2
KDPL 251145Z AUTO 00000KT 2SM BR OVC002 22/22 A3020 RMK AO2
KDPL 251125Z AUTO 00000KT 1 3/4SM BR OVC002 22/22 A3019 RMK AO2
KDPL 251105Z AUTO 00000KT 1 1/4SM BR OVC002 22/22 A3019 RMK AO2
KDPL 251045Z AUTO 00000KT 1 1/4SM BR OVC002 22/22 A3018 RMK AO2
KDPL 251025Z AUTO 04003KT 1 1/4SM BR OVC002 22/22 A3018 RMK AO2
KDPL 251005Z AUTO 00000KT 1 1/2SM BR OVC002 22/22 A3017 RMK AO2
KDPL 250945Z AUTO 03003KT 1 3/4SM BR OVC002 22/22 A3018 RMK AO2
KDPL 250925Z AUTO 03003KT 2SM BR OVC002 22/22 A3017 RMK AO2
KDPL 250905Z AUTO 00000KT 1 1/4SM BR OVC002 22/21 A3017 RMK AO2
KDPL 250845Z AUTO 03003KT 1/2SM FG OVC002 21/21 A3016 RMK AO2
KDPL 250825Z AUTO 00000KT 1 1/2SM BR OVC002 21/21 A3017 RMK AO2
KDPL 250805Z AUTO 02003KT 1 3/4SM BR OVC002 21/21 A3017 RMK AO2
KDPL 250745Z AUTO 36003KT 3SM BR OVC002 21/21 A3019 RMK AO2
KDPL 250725Z AUTO 00000KT 1SM BR OVC002 21/21 A3019 RMK AO2
KDPL 250705Z AUTO 00000KT 2SM BR SCT002 SCT018 21/21 A3019 RMK AO2
KDPL 250645Z AUTO 00000KT 2 1/2SM BR CLR 21/21 A3020 RMK AO2
KDPL 250625Z AUTO 00000KT 3SM BR CLR 21/20 A3020 RMK AO2
KDPL 250605Z AUTO 00000KT 3 1/2SM BR CLR 21/20 A3021 RMK AO2
KDPL 250545Z AUTO 00000KT 4SM BR CLR 21/20 A3021 RMK AO2
KDPL 250525Z AUTO 02003KT 3 1/2SM BR CLR 21/20 A3022 RMK AO2
KDPL 250425Z AUTO 00000KT 3 1/2SM BR CLR 21/21 A3023 RMK AO2
KDPL 250405Z AUTO 00000KT 5SM BR CLR 21/21 A3023 RMK AO2
KDPL 250345Z AUTO 00000KT 2 1/2SM BR SCT023 SCT030 21/21 A3024 RMK AO2 P0001
KDPL 250245Z AUTO 00000KT 7SM BR SCT060 22/21 A3023 RMK AO2
KDPL 250225Z AUTO 02003KT 7SM BR OVC060 22/22 A3023 RMK AO2
KDPL 250205Z AUTO 36003KT 7SM BR BKN060 BKN090 22/22 A3022 RMK AO2
KDPL 250145Z AUTO 34003KT 7SM BR SCT050 BKN090 BKN110 22/22 A3022 RMK AO2
KDPL 250125Z AUTO 00000KT 7SM BKN050 OVC090 22/22 A3022 RMK AO2
KDPL 250045Z AUTO 00000KT 7SM BR SCT022 BKN030 OVC080 22/22 A3021 RMK AO2 P0004
KDPL 250025Z AUTO 17003KT 2 1/2SM RA BR SCT019 OVC027 23/22 A3020 RMK AO2 P0004
KDPL 250005Z AUTO 16003KT 10SM SCT020 OVC027 24/22 A3020 RMK AO2
KDPL 242345Z AUTO 17006KT 10SM SCT029 BKN055 OVC075 24/22 A3019 RMK AO2
KDPL 242325Z AUTO 01003KT 10SM SCT033 SCT043 OVC055 24/22 A3019 RMK AO2
KDPL 242305Z AUTO 00000KT 10SM SCT055 OVC065 24/22 A3019 RMK AO2
KDPL 242245Z AUTO 36003KT 10SM SCT050 OVC065 24/22 A3019 RMK AO2
KDPL 242225Z AUTO 35004KT 10SM SCT032 SCT045 OVC050 24/22 A3019 RMK AO2
KDPL 242205Z AUTO 00000KT 10SM SCT032 BKN041 OVC065 25/21 A3019 RMK AO2
KDPL 242145Z AUTO 02006KT 10SM SCT060 OVC085 25/22 A3019 RMK AO2
KDPL 242125Z AUTO 03005KT 10SM OVC085 25/22 A3018 RMK AO2
KDPL 242105Z AUTO 01004KT 10SM SCT019 OVC085 25/21 A3018 RMK AO2
KDPL 242045Z AUTO 03004KT 10SM SCT021 OVC085 25/21 A3018 RMK AO2
KDPL 242025Z AUTO 02004KT 10SM SCT021 BKN080 OVC085 26/21 A3017 RMK AO2
KDPL 242005Z AUTO 00000KT 10SM SCT018 OVC080 25/21 A3018 RMK AO2
KDPL 241945Z AUTO 04005KT 10SM BKN018 OVC080 25/21 A3019 RMK AO2
KDPL 241925Z AUTO 03003KT 10SM BKN018 OVC080 25/21 A3019 RMK AO2
KDPL 241905Z AUTO 02007KT 350V060 10SM OVC018 25/21 A3020 RMK AO2
KDPL 241845Z AUTO 03005KT 10SM OVC014 24/21 A3021 RMK AO2
KDPL 241805Z AUTO 06004KT 10SM OVC014 24/21 A3022 RMK AO2
KDPL 241745Z AUTO 06007KT 030V100 7SM OVC012 24/21 A3023 RMK AO2
KDPL 241725Z AUTO 02007KT 10SM OVC012 23/20 A3024 RMK AO2
KDPL 241705Z AUTO 05005KT 10SM OVC010 23/20 A3024 RMK AO2
KDPL 241645Z AUTO 00000KT 10SM OVC008 23/20 A3024 RMK AO2